Time;durP1;ratioP1;P1;durP2;ratioP2;P2;SDS_P1;SDS_P2;PMS_P1;PMS_P2;Temp;Humidity;BMP_temperature;BMP_pressure;BME280_temperature;BME280_humidity;BME280_pressure;Samples;Min_cycle;Max_cycle;Signal;HPM_P1;HPM_P2
2022/08/30 00:02:35;;;;;;;;;22.67;20.33;;;;;19.55;100.00;99767.41;6280184;20;2846144;-57
2022/08/30 00:05:04;;;;;;;;;18.00;17.00;;;;;19.35;100.00;99770.19;6311042;20;2832670;-55
2022/08/30 00:07:34;;;;;;;;;22.00;22.00;;;;;19.42;100.00;99773.19;6273270;20;2835783;-56
2022/08/30 00:10:04;;;;;;;;;21.00;21.00;;;;;19.35;100.00;99772.91;6313233;20;3572266;-54
2022/08/30 00:12:34;;;;;;;;;20.00;20.00;;;;;19.36;100.00;99780.09;6281052;20;2834761;-56
2022/08/30 00:15:05;;;;;;;;;21.00;20.00;;;;;19.36;100.00;99780.09;6278373;20;2835776;-56
2022/08/30 00:17:36;;;;;;;;;21.50;21.00;;;;;19.26;100.00;99780.13;6279012;20;2841942;-54
2022/08/30 00:20:10;;;;;;;;;23.33;22.00;;;;;19.16;100.00;99782.00;6282325;20;3575265;-57
2022/08/30 00:22:40;;;;;;;;;21.00;20.00;;;;;19.05;100.00;99777.59;6282932;20;3566027;-55
2022/08/30 00:25:09;;;;;;;;;23.33;20.00;;;;;18.94;100.00;99785.94;6279274;20;3567955;-55
2022/08/30 00:27:39;;;;;;;;;21.67;18.00;;;;;18.83;100.00;99780.66;6277199;20;3569052;-57
2022/08/30 00:30:11;;;;;;;;;23.00;21.00;;;;;18.78;100.00;99786.53;6278132;20;2828713;-58
2022/08/30 00:32:40;;;;;;;;;20.00;18.67;;;;;18.80;100.00;99778.22;6281925;20;3579447;-56
2022/08/30 00:35:13;;;;;;;;;23.00;18.67;;;;;18.98;100.00;99779.19;6276974;20;2839856;-57
2022/08/30 00:37:43;;;;;;;;;21.00;21.00;;;;;18.94;100.00;99785.94;6308478;20;2835751;-55
2022/08/30 00:40:14;;;;;;;;;18.67;18.67;;;;;18.75;100.00;99788.69;6283508;20;3577479;-55
2022/08/30 00:42:44;;;;;;;;;19.50;18.00;;;;;18.75;100.00;99791.41;6277034;20;2837794;-58
2022/08/30 00:45:30;;;;;;;;;23.67;20.00;;;;;19.06;100.00;99787.50;6276911;20;2833640;-58
2022/08/30 00:48:00;;;;;;;;;17.00;17.00;;;;;19.11;100.00;99791.63;6308761;20;2837779;-56
2022/08/30 00:50:44;;;;;;;;;19.00;17.00;;;;;19.00;100.00;99788.06;6276552;20;2838828;-56
2022/08/30 00:53:21;;;;;;;;;20.00;18.00;;;;;19.01;100.00;99788.91;6278337;20;3564833;-57
2022/08/30 00:55:51;;;;;;;;;21.50;18.00;;;;;18.71;100.00;99781.78;6274788;20;2836888;-55
2022/08/30 00:58:35;;;;;;;;;23.00;20.33;;;;;18.75;100.00;99788.69;6277930;20;3571063;-58
2022/08/30 01:01:07;;;;;;;;;15.67;15.67;;;;;18.96;100.00;99780.38;6277502;20;3544055;-57
2022/08/30 01:03:38;;;;;;;;;17.67;17.67;;;;;18.87;100.00;99773.91;6312226;20;3569014;-58
2022/08/30 01:06:07;;;;;;;;;22.00;19.50;;;;;18.77;100.00;99782.09;6274341;20;2838828;-57
2022/08/30 01:08:37;;;;;;;;;21.50;21.50;;;;;18.91;100.00;99775.34;6275589;20;2831513;-55
2022/08/30 01:11:07;;;;;;;;;23.00;21.67;;;;;18.64;100.00;99774.19;6281859;20;3560844;-58
2022/08/30 01:13:36;;;;;;;;;18.00;18.00;;;;;18.53;100.00;99777.03;6310628;20;3582057;-57
2022/08/30 01:16:05;;;;;;;;;19.67;17.33;;;;;18.51;100.00;99773.63;6278567;20;3571103;-57
2022/08/30 01:18:38;;;;;;;;;20.67;19.67;;;;;18.70;100.00;99771.91;6275791;20;3564901;-56
2022/08/30 01:21:56;;;;;;;;;18.33;18.33;;;;;18.76;100.00;99765.91;6313930;20;3570203;-57
2022/08/30 01:24:25;;;;;;;;;18.33;16.67;;;;;18.60;100.00;99761.88;6272841;20;3559645;-56
2022/08/30 01:26:54;;;;;;;;;22.00;21.00;;;;;18.86;100.00;99762.19;6275575;20;2836909;-58
2022/08/30 01:29:25;;;;;;;;;23.50;21.00;;;;;18.57;100.00;99758.59;6273441;20;2831666;-55
2022/08/30 01:31:54;;;;;;;;;25.00;21.00;;;;;18.76;100.00;99749.59;6278411;20;2715933;-58
2022/08/30 01:34:24;;;;;;;;;18.50;18.50;;;;;18.74;100.00;99757.00;6308407;20;2832649;-56
2022/08/30 01:36:53;;;;;;;;;18.00;18.00;;;;;18.64;100.00;99762.44;6273897;20;2842132;-58
2022/08/30 01:39:21;;;;;;;;;22.33;21.33;;;;;18.81;100.00;99764.47;6280794;20;3565950;-56
2022/08/30 01:41:51;;;;;;;;;21.50;20.00;;;;;18.84;100.00;99764.19;6268933;20;2834701;-58
2022/08/30 01:44:20;;;;;;;;;22.67;20.67;;;;;18.79;100.00;99763.75;6278402;20;3566913;-58
2022/08/30 01:46:48;;;;;;;;;19.50;19.00;;;;;18.68;100.00;99761.16;6274051;20;2836731;-56
2022/08/30 01:49:19;;;;;;;;;21.00;19.50;;;;;18.84;100.00;99760.59;6270972;20;2831598;-59
2022/08/30 01:51:55;;;;;;;;;20.50;20.50;;;;;18.86;100.00;99767.63;6279591;20;2832593;-56
2022/08/30 01:54:32;;;;;;;;;22.00;22.00;;;;;18.41;100.00;99759.19;6282334;20;3582514;-58
2022/08/30 01:57:10;;;;;;;;;22.00;21.00;;;;;18.13;100.00;99758.16;6277640;20;3564841;-58
2022/08/30 01:59:46;;;;;;;;;20.33;18.67;;;;;18.09;100.00;99751.25;6307667;20;3563796;-53
2022/08/30 02:02:24;;;;;;;;;19.00;19.00;;;;;18.41;100.00;99753.75;6278834;20;3567968;-57
2022/08/30 02:04:55;;;;;;;;;21.67;20.67;;;;;18.23;100.00;99755.44;6283149;20;3562727;-56
2022/08/30 02:07:26;;;;;;;;;22.00;20.50;;;;;17.98;100.00;99755.84;6277175;20;2842026;-52
2022/08/30 02:09:55;;;;;;;;;24.33;21.67;;;;;18.08;100.00;99761.28;6285693;20;3589920;-56
2022/08/30 02:12:24;;;;;;;;;26.00;23.00;;;;;18.00;100.00;99763.84;6285217;20;3580537;-57
2022/08/30 02:14:53;;;;;;;;;28.00;22.00;;;;;17.86;100.00;99761.53;6281920;20;2854522;-58
2022/08/30 02:17:22;;;;;;;;;25.33;24.00;;;;;17.91;100.00;99756.56;6285716;20;3570218;-59
2022/08/30 02:19:51;;;;;;;;;25.33;22.33;;;;;18.24;100.00;99763.44;6276842;20;2844036;-59
2022/08/30 02:22:20;;;;;;;;;22.00;21.00;;;;;18.28;100.00;99761.31;6312763;20;3568090;-54
2022/08/30 02:24:48;;;;;;;;;25.00;22.50;;;;;18.06;100.00;99760.59;6280692;20;2829461;-50
2022/08/30 02:27:17;;;;;;;;;25.00;21.00;;;;;18.07;100.00;99759.56;6282372;20;2833657;-54
2022/08/30 02:29:46;;;;;;;;;20.50;19.50;;;;;18.06;100.00;99755.16;6279229;20;2832602;-52
2022/08/30 02:32:15;;;;;;;;;21.33;21.33;;;;;18.31;100.00;99761.03;6282501;20;3571179;-54
2022/08/30 02:34:46;;;;;;;;;24.67;23.00;;;;;18.25;100.00;99764.34;6282172;20;3573814;-55
2022/08/30 02:37:14;;;;;;;;;26.00;22.00;;;;;18.39;100.00;99758.47;6316048;20;3571128;-54
2022/08/30 02:39:44;;;;;;;;;25.00;23.67;;;;;18.10;100.00;99756.56;6280577;20;2846210;-50
2022/08/30 02:42:12;;;;;;;;;25.67;24.00;;;;;17.91;100.00;99759.25;6312587;20;3589846;-50
2022/08/30 02:44:41;;;;;;;;;26.00;22.33;;;;;18.06;100.00;99757.88;6283232;20;3587847;-50
2022/08/30 02:47:11;;;;;;;;;25.33;24.00;;;;;18.23;100.00;99753.59;6280764;20;2844020;-53
2022/08/30 02:49:39;;;;;;;;;23.67;23.00;;;;;18.36;100.00;99748.72;6315594;20;3587758;-56
2022/08/30 02:52:09;;;;;;;;;24.67;24.67;;;;;18.35;100.00;99746.13;6276224;20;2855569;-54
2022/08/30 02:54:37;;;;;;;;;24.00;24.00;;;;;18.32;100.00;99747.28;6315277;20;3578547;-52
2022/08/30 02:57:07;;;;;;;;;26.33;23.00;;;;;18.47;100.00;99755.03;6281239;20;2848471;-56
2022/08/30 02:59:48;;;;;;;;;22.33;18.67;;;;;18.41;100.00;99751.03;6314752;20;3569012;-54
2022/08/30 03:02:17;;;;;;;;;22.33;21.67;;;;;18.34;100.00;99749.88;6282106;20;3573293;-53
2022/08/30 03:04:47;;;;;;;;;25.33;22.67;;;;;18.17;100.00;99746.88;6278791;20;2844108;-53
2022/08/30 03:07:17;;;;;;;;;18.33;18.33;;;;;18.04;100.00;99746.28;6311810;20;3568017;-55
2022/08/30 03:09:45;;;;;;;;;28.67;25.00;;;;;17.96;100.00;99757.00;6284616;20;3583659;-53
2022/08/30 03:12:14;;;;;;;;;28.67;25.00;;;;;18.07;100.00;99754.16;6282617;20;3590956;-51
2022/08/30 03:14:43;;;;;;;;;26.67;24.00;;;;;17.98;100.00;99754.97;6282256;20;3580521;-55
2022/08/30 03:17:12;;;;;;;;;29.00;28.00;;;;;17.94;100.00;99753.56;6276025;20;3608604;-55
2022/08/30 03:19:44;;;;;;;;;28.00;25.00;;;;;17.89;100.00;99758.53;6285050;20;3588813;-55
2022/08/30 03:22:13;;;;;;;;;30.00;24.33;;;;;17.93;100.00;99754.53;6278768;20;3599242;-54
2022/08/30 03:24:44;;;;;;;;;26.67;25.33;;;;;17.99;100.00;99751.28;6281437;20;2837851;-51
2022/08/30 03:27:13;;;;;;;;;25.67;23.00;;;;;18.08;100.00;99761.28;6312544;20;3582523;-54
2022/08/30 03:29:42;;;;;;;;;29.33;27.33;;;;;17.97;100.00;99762.25;6279571;20;3590872;-56
2022/08/30 03:32:10;;;;;;;;;23.33;23.33;;;;;18.13;100.00;99764.44;6278623;20;3587887;-55
2022/08/30 03:34:39;;;;;;;;;27.00;24.33;;;;;17.99;100.00;99767.56;6275408;20;3585647;-58
2022/08/30 03:37:08;;;;;;;;;29.33;28.33;;;;;18.05;100.00;99772.44;6282388;20;3607058;-60
2022/08/30 03:39:37;;;;;;;;;29.00;27.33;;;;;17.90;100.00;99776.53;6281385;20;3583612;-52
2022/08/30 03:42:06;;;;;;;;;24.00;22.33;;;;;17.93;100.00;99778.97;6280734;20;3588813;-57
2022/08/30 03:44:36;;;;;;;;;25.67;25.67;;;;;17.81;100.00;99780.97;6278630;20;3577388;-55
2022/08/30 03:47:07;;;;;;;;;24.33;21.00;;;;;17.76;100.00;99786.78;6283951;20;3576293;-51
2022/08/30 03:49:36;;;;;;;;;23.67;23.00;;;;;17.64;100.00;99785.19;6283489;20;3582546;-56
2022/08/30 03:52:05;;;;;;;;;28.67;27.33;;;;;17.71;100.00;99780.88;6280440;20;3604582;-53
2022/08/30 03:54:33;;;;;;;;;19.00;17.00;;;;;17.62;100.00;99787.16;6279714;20;3550399;-55
2022/08/30 03:57:05;;;;;;;;;24.67;22.00;;;;;17.70;100.00;99791.91;6282438;20;2845138;-55
2022/08/30 03:59:34;;;;;;;;;27.67;27.00;;;;;17.62;100.00;99787.16;6316655;20;3600234;-54
2022/08/30 04:02:04;;;;;;;;;24.67;23.00;;;;;17.49;100.00;99781.09;6284763;20;3578358;-52
2022/08/30 04:04:32;;;;;;;;;24.33;23.33;;;;;17.43;100.00;99793.38;6280096;20;3586693;-53
2022/08/30 04:07:01;;;;;;;;;26.67;25.00;;;;;17.60;100.00;99796.44;6278044;20;3580459;-53
2022/08/30 04:09:30;;;;;;;;;29.00;25.00;;;;;17.80;100.00;99795.56;6280209;20;3602507;-55
2022/08/30 04:11:59;;;;;;;;;29.33;27.33;;;;;17.81;100.00;99796.41;6287245;20;3600241;-55
2022/08/30 04:14:28;;;;;;;;;25.33;24.00;;;;;17.62;100.00;99798.03;6282968;20;3589961;-55
2022/08/30 04:16:57;;;;;;;;;25.67;23.67;;;;;17.51;100.00;99801.69;6316895;20;3585702;-53
2022/08/30 04:19:25;;;;;;;;;26.33;25.00;;;;;17.63;100.00;99805.16;6284480;20;3586702;-53
2022/08/30 04:21:56;;;;;;;;;25.67;23.67;;;;;17.61;100.00;99809.00;6284192;20;3586813;-54
2022/08/30 04:24:24;;;;;;;;;27.67;25.67;;;;;17.64;100.00;99812.34;6317198;20;3602307;-56
2022/08/30 04:26:53;;;;;;;;;23.00;23.00;;;;;17.63;100.00;99816.03;6282858;20;3578423;-53
2022/08/30 04:29:22;;;;;;;;;24.67;22.67;;;;;17.56;100.00;99814.84;6278054;20;2843999;-53
2022/08/30 04:31:51;;;;;;;;;26.33;25.67;;;;;17.62;100.00;99825.19;6318046;20;3599247;-54
2022/08/30 04:34:23;;;;;;;;;29.33;24.00;;;;;17.52;100.00;99818.84;6284463;20;3591935;-52
2022/08/30 04:36:52;;;;;;;;;25.33;24.33;;;;;17.72;100.00;99831.50;6284870;20;3596258;-52
2022/08/30 04:39:20;;;;;;;;;25.00;25.00;;;;;17.66;100.00;99826.59;6287678;20;3606471;-53
2022/08/30 04:41:49;;;;;;;;;30.00;28.00;;;;;17.66;100.00;99829.31;6285160;20;3606571;-49
2022/08/30 04:44:18;;;;;;;;;27.00;25.00;;;;;17.74;100.00;99834.94;6284070;20;3476370;-48
2022/08/30 04:46:47;;;;;;;;;28.67;27.00;;;;;17.72;100.00;99834.22;6316267;20;3588838;-50
2022/08/30 04:49:16;;;;;;;;;27.00;21.67;;;;;17.88;100.00;99838.31;6282905;20;3579502;-52
2022/08/30 04:51:45;;;;;;;;;25.67;24.67;;;;;17.83;100.00;99840.59;6281888;20;3576259;-51
2022/08/30 04:54:15;;;;;;;;;30.00;26.33;;;;;17.84;100.00;99836.88;6285650;20;3605623;-51
2022/08/30 04:56:43;;;;;;;;;30.67;27.00;;;;;18.04;100.00;99846.81;6284812;20;3601354;-49
2022/08/30 04:59:12;;;;;;;;;28.67;26.33;;;;;17.94;100.00;99849.47;6283137;20;3598154;-54
2022/08/30 05:01:41;;;;;;;;;26.00;26.00;;;;;18.00;100.00;99850.78;6280807;20;3579484;-55
2022/08/30 05:04:20;;;;;;;;;28.33;25.00;;;;;18.21;100.00;99846.13;6281145;20;3580414;-59
2022/08/30 05:06:55;;;;;;;;;27.00;26.00;;;;;18.54;100.00;99854.94;6281084;20;3599359;-59
2022/08/30 05:09:24;;;;;;;;;25.33;23.33;;;;;18.60;100.00;99854.34;6286491;20;3568067;-53
2022/08/30 05:11:52;;;;;;;;;23.67;23.33;;;;;18.53;100.00;99858.63;6278738;20;3585679;-52
2022/08/30 05:14:21;;;;;;;;;29.00;28.00;;;;;18.79;99.94;99863.56;6281703;20;3585796;-56
2022/08/30 05:16:50;;;;;;;;;26.67;25.00;;;;;18.66;100.00;99861.06;6284811;20;3598144;-51
2022/08/30 05:19:18;;;;;;;;;29.00;26.00;;;;;18.96;99.04;99870.16;6288386;20;3588825;-57
2022/08/30 05:21:47;;;;;;;;;24.00;22.33;;;;;19.03;99.18;99865.84;6282246;20;3573202;-54
2022/08/30 05:24:16;;;;;;;;;27.00;23.00;;;;;19.20;98.08;99867.84;6284327;20;3591969;-54
2022/08/30 05:26:44;;;;;;;;;27.67;25.33;;;;;19.57;96.59;99868.91;6287380;20;3591908;-55
2022/08/30 05:29:14;;;;;;;;;27.00;24.67;;;;;20.06;95.04;99864.13;6282545;20;3606890;-54
2022/08/30 05:31:43;;;;;;;;;24.00;24.00;;;;;20.99;89.42;99873.03;6308633;20;3587852;-56
2022/08/30 05:34:15;;;;;;;;;24.75;22.38;;;;;20.39;90.53;99871.72;6296487;20;3582623;-53
2022/08/30 05:36:56;;;;;;;;;21.33;21.33;;;;;20.22;92.13;99869.81;6277595;20;3585919;-54
2022/08/30 05:39:25;;;;;;;;;26.67;25.67;;;;;20.70;90.15;99874.13;6270327;20;3585638;-56
2022/08/30 05:41:58;;;;;;;;;26.00;25.33;;;;;20.87;88.61;99868.81;6287252;20;3593990;-60
2022/08/30 05:44:27;;;;;;;;;27.67;23.00;;;;;20.70;89.72;99868.66;6280101;20;3586789;-60
2022/08/30 05:46:56;;;;;;;;;27.67;23.33;;;;;21.44;86.82;99869.34;6281664;20;3579608;-60
2022/08/30 05:49:24;;;;;;;;;24.67;23.33;;;;;21.79;83.42;99876.53;6283117;20;3583546;-60
2022/08/30 05:51:53;;;;;;;;;28.33;25.33;;;;;21.42;85.59;99868.63;6283550;20;3593985;-60
2022/08/30 05:54:21;;;;;;;;;17.33;17.33;;;;;21.21;84.57;99875.25;6288027;20;3562735;-60
2022/08/30 05:56:50;;;;;;;;;22.67;22.67;;;;;21.21;86.22;99869.78;6280960;20;3592016;-60
2022/08/30 05:59:19;;;;;;;;;23.33;23.33;;;;;21.61;83.66;99873.88;6282703;20;3583606;-60
2022/08/30 06:01:47;;;;;;;;;24.67;22.67;;;;;21.69;83.72;99887.56;6280855;20;3581669;-59
2022/08/30 06:04:17;;;;;;;;;26.33;22.33;;;;;22.97;79.00;99899.41;6285022;20;3585729;-59
2022/08/30 06:06:45;;;;;;;;;19.00;18.00;;;;;23.51;74.37;99896.16;6285902;20;3565855;-59
2022/08/30 06:09:15;;;;;;;;;23.00;21.67;;;;;23.68;73.23;99891.53;6284793;20;3567943;-60
2022/08/30 06:11:45;;;;;;;;;25.67;22.33;;;;;23.31;73.42;99901.16;6282810;20;3581514;-60
2022/08/30 06:14:14;;;;;;;;;19.67;18.33;;;;;23.58;71.69;99896.34;6285490;20;3572150;-60
2022/08/30 06:16:46;;;;;;;;;17.33;16.33;;;;;24.49;67.19;99892.34;6283237;20;3558570;-60
2022/08/30 06:19:15;;;;;;;;;18.67;18.33;;;;;24.44;67.11;99892.88;6284261;20;3563804;-59
2022/08/30 06:21:49;;;;;;;;;22.33;19.00;;;;;23.13;70.36;99887.63;6281561;20;3577341;-60
2022/08/30 06:24:18;;;;;;;;;19.33;19.33;;;;;22.48;73.45;99882.00;6282087;20;3573138;-60
2022/08/30 06:26:55;;;;;;;;;20.33;18.00;;;;;22.79;73.18;99885.00;6281419;20;3566903;-60
2022/08/30 06:29:24;;;;;;;;;21.67;19.33;;;;;23.01;72.61;99888.97;6280022;20;2839917;-59
2022/08/30 06:31:53;;;;;;;;;22.33;18.00;;;;;22.90;72.37;99892.03;6312613;20;3564820;-59
2022/08/30 06:34:22;;;;;;;;;19.67;18.33;;;;;22.85;71.61;99897.13;6281483;20;3575735;-60
2022/08/30 06:36:51;;;;;;;;;20.33;16.33;;;;;22.65;71.73;99891.13;6281930;20;3573187;-60
2022/08/30 06:39:21;;;;;;;;;19.00;17.00;;;;;22.87;71.48;99901.44;6279926;20;2833611;-60
2022/08/30 06:41:49;;;;;;;;;18.50;18.50;;;;;22.93;71.38;99895.28;6277244;20;2837796;-60
2022/08/30 06:44:18;;;;;;;;;17.50;17.50;;;;;23.04;70.51;99898.72;6277033;20;2831563;-60
2022/08/30 06:46:47;;;;;;;;;21.67;16.67;;;;;23.04;70.82;99896.88;6284339;20;3571494;-60
2022/08/30 06:49:16;;;;;;;;;18.33;16.00;;;;;24.07;67.68;99896.25;6284452;20;3566914;-59
2022/08/30 06:51:44;;;;;;;;;16.67;16.00;;;;;25.00;63.23;99908.34;6284274;20;3553348;-60
2022/08/30 06:54:13;;;;;;;;;18.00;16.00;;;;;24.36;64.17;99903.00;6316664;20;3563788;-60
2022/08/30 06:56:41;;;;;;;;;15.00;15.00;;;;;23.95;65.08;99900.41;6283314;20;3543990;-60
2022/08/30 06:59:26;;;;;;;;;15.00;13.33;;;;;23.84;64.23;99905.22;6292854;20;2789873;-59
2022/08/30 07:01:56;;;;;;;;;16.00;16.00;;;;;23.20;66.58;99898.75;6318736;20;2814883;-61
2022/08/30 07:04:25;;;;;;;;;16.50;16.50;;;;;23.06;67.05;99892.06;6279868;20;2824499;-60
2022/08/30 07:06:54;;;;;;;;;16.00;16.00;;;;;23.73;65.92;99904.75;6281648;20;2483595;-60
2022/08/30 07:09:23;;;;;;;;;16.00;15.00;;;;;24.34;63.27;99908.66;6319064;20;2808579;-61
2022/08/30 07:11:53;;;;;;;;;15.00;15.00;;;;;24.32;62.37;99906.09;6284205;20;2818992;-60
2022/08/30 07:14:22;;;;;;;;;15.00;14.33;;;;;24.37;63.13;99913.78;6283015;20;3535643;-61
2022/08/30 07:16:51;;;;;;;;;16.00;14.00;;;;;24.73;61.72;99913.31;6285043;20;2802373;-60
2022/08/30 07:19:21;;;;;;;;;15.67;14.67;;;;;24.79;61.13;99915.34;6286526;20;2485738;-60
2022/08/30 07:21:49;;;;;;;;;13.00;13.00;;;;;28.28;52.47;99925.00;6319732;20;3533593;-60
2022/08/30 07:24:19;;;;;;;;;12.00;12.00;;;;;31.90;42.53;99937.06;6320189;20;3527309;-60
2022/08/30 07:26:50;;;;;;;;;14.33;11.00;;;;;31.54;41.92;99938.66;6315693;20;2483604;-60
2022/08/30 07:29:20;;;;;;;;;15.00;15.00;;;;;28.84;48.45;99937.81;6316923;20;3535845;-60
2022/08/30 07:31:49;;;;;;;;;14.00;13.00;;;;;25.72;56.71;99927.16;6318119;20;3527490;-60
2022/08/30 07:34:18;;;;;;;;;15.50;13.50;;;;;24.86;58.96;99926.47;6309737;20;2814877;-61
2022/08/30 07:36:50;;;;;;;;;17.00;17.00;;;;;24.18;61.20;99923.31;6287944;20;3563856;-59
2022/08/30 07:39:19;;;;;;;;;16.00;16.00;;;;;24.77;60.63;99931.13;6284066;20;3564838;-60
2022/08/30 07:41:49;;;;;;;;;16.00;16.00;;;;;24.62;60.57;99933.81;6286567;20;2483643;-59
2022/08/30 07:44:18;;;;;;;;;16.50;16.50;;;;;24.22;61.89;99932.88;6313070;20;2836106;-59
2022/08/30 07:46:50;;;;;;;;;14.67;14.67;;;;;24.53;60.50;99932.13;6285613;20;3539983;-60
2022/08/30 07:49:19;;;;;;;;;15.00;15.00;;;;;24.72;61.49;99928.94;6285461;20;2819523;-59
2022/08/30 07:51:48;;;;;;;;;12.00;9.67;;;;;24.64;59.18;99936.34;6281544;20;3507552;-59
2022/08/30 07:54:16;;;;;;;;;16.67;15.67;;;;;24.85;60.77;99932.97;6287035;20;3557675;-59
2022/08/30 07:56:45;;;;;;;;;16.67;16.67;;;;;24.46;60.32;99939.34;6285330;20;3573136;-60
2022/08/30 07:59:14;;;;;;;;;16.00;16.00;;;;;25.50;59.27;99943.53;6282261;20;2820091;-59
2022/08/30 08:01:43;;;;;;;;;19.00;19.00;;;;;25.31;59.02;99942.16;6286199;20;2834712;-59
2022/08/30 08:04:11;;;;;;;;;21.00;16.33;;;;;24.81;60.19;99937.97;6287351;20;3561749;-59
2022/08/30 08:06:41;;;;;;;;;17.00;17.00;;;;;24.86;59.79;99935.56;6283789;20;2824351;-59
2022/08/30 08:09:10;;;;;;;;;15.00;15.00;;;;;24.67;59.64;99931.38;6283393;20;2820081;-60
2022/08/30 08:11:40;;;;;;;;;21.33;18.67;;;;;24.83;60.56;99938.66;6318372;20;2837986;-59
2022/08/30 08:14:10;;;;;;;;;18.00;16.00;;;;;24.95;60.90;99934.44;6315665;20;2837872;-59
2022/08/30 08:16:41;;;;;;;;;18.33;16.33;;;;;24.88;60.74;99929.84;6289054;20;3559654;-59
2022/08/30 08:19:11;;;;;;;;;16.50;16.50;;;;;25.03;59.93;99930.78;6314585;20;2821534;-60
2022/08/30 08:21:40;;;;;;;;;19.00;16.33;;;;;25.48;58.31;99929.09;6289688;20;3566916;-59
2022/08/30 08:24:08;;;;;;;;;18.33;15.00;;;;;25.86;58.19;99942.00;6286685;20;3549438;-60
2022/08/30 08:26:38;;;;;;;;;15.50;15.50;;;;;26.03;58.26;99935.31;6278614;20;2819018;-59
2022/08/30 08:29:12;;;;;;;;;17.00;17.00;;;;;27.28;54.68;99946.28;6290143;20;3556722;-60
2022/08/30 08:31:41;;;;;;;;;15.67;15.67;;;;;27.49;54.22;99944.53;6290052;20;3556506;-59
2022/08/30 08:34:12;;;;;;;;;19.67;18.33;;;;;27.68;53.58;99937.50;6296713;20;3565964;-61
2022/08/30 08:36:41;;;;;;;;;19.00;17.67;;;;;27.32;53.47;99943.97;6318549;20;3571106;-58
2022/08/30 08:39:09;;;;;;;;;19.67;18.67;;;;;27.36;53.88;99948.91;6289896;20;3579416;-59
2022/08/30 08:42:05;;;;;;;;;17.00;17.00;;;;;28.00;51.94;99941.59;6285918;20;3561763;-59
2022/08/30 08:45:10;;;;;;;;;17.67;16.67;;;;;29.03;49.81;99942.56;6283232;20;3572281;-54
2022/08/30 08:48:32;;;;;;;;;17.50;17.50;;;;;27.86;51.11;99939.78;6282129;20;2829610;-60
2022/08/30 08:54:29;;;;;;;;;19.00;19.00;;;;;27.08;54.44;99936.91;6311873;20;3569158;-60
2022/08/30 08:56:59;;;;;;;;;16.00;14.00;;;;;27.56;54.03;99940.78;6282071;20;2810740;-59
2022/08/30 08:59:28;;;;;;;;;22.33;21.67;;;;;27.09;54.80;99933.97;6286755;20;3580428;-60
2022/08/30 09:02:05;;;;;;;;;19.00;17.67;;;;;27.40;54.40;99929.19;6276570;20;2841969;-59
2022/08/30 09:04:38;;;;;;;;;18.00;16.67;;;;;27.73;52.86;99940.53;6309828;20;3559595;-59
2022/08/30 09:07:25;;;;;;;;;20.00;17.00;;;;;27.29;53.63;99931.44;6307728;20;3573154;-59
2022/08/30 09:09:54;;;;;;;;;18.00;17.00;;;;;27.26;53.42;99928.22;6310964;20;3566888;-59
2022/08/30 09:12:22;;;;;;;;;16.33;16.33;;;;;26.92;54.35;99922.31;6278593;20;3556508;-59
2022/08/30 09:15:14;;;;;;;;;17.00;15.67;;;;;27.38;55.15;99932.13;6287359;20;3559164;-59
2022/08/30 09:17:55;;;;;;;;;21.67;18.00;;;;;27.40;53.63;99923.69;6280727;20;3579436;-59
2022/08/30 09:20:31;;;;;;;;;19.67;17.67;;;;;26.83;55.49;99925.38;6283132;20;2839885;-59
2022/08/30 09:23:26;;;;;;;;;19.33;18.33;;;;;27.30;53.75;99924.84;6311209;20;3573186;-57
2022/08/30 09:26:08;;;;;;;;;22.00;19.00;;;;;26.70;55.98;99917.84;6316625;20;3571085;-60
2022/08/30 09:28:52;;;;;;;;;18.67;18.67;;;;;27.53;53.95;99921.03;6285993;20;3572093;-57
2022/08/30 09:31:29;;;;;;;;;18.00;15.50;;;;;27.68;54.18;99921.81;6285346;20;2831580;-56
2022/08/30 09:34:07;;;;;;;;;15.33;15.00;;;;;27.85;52.91;99922.38;6274371;20;3538919;-58
2022/08/30 09:36:52;;;;;;;;;17.00;17.00;;;;;27.29;53.35;99912.13;6283664;20;3566892;-59
2022/08/30 09:39:36;;;;;;;;;20.33;18.00;;;;;27.96;52.29;99915.44;6281592;20;3581613;-58
2022/08/30 09:42:23;;;;;;;;;18.50;18.50;;;;;27.44;53.24;99913.97;6280903;20;2832547;-58
2022/08/30 09:45:09;;;;;;;;;12.33;12.33;;;;;27.61;52.89;99911.78;6280964;20;3530636;-57
2022/08/30 09:47:42;;;;;;;;;16.67;16.00;;;;;27.75;53.00;99906.16;6284764;20;3561811;-56
2022/08/30 09:50:21;;;;;;;;;14.00;14.00;;;;;27.59;52.08;99906.44;6281957;20;3525439;-53
2022/08/30 09:53:21;;;;;;;;;12.33;12.33;;;;;27.43;52.17;99899.31;6310648;20;3516923;-56
2022/08/30 09:56:09;;;;;;;;;15.50;15.50;;;;;27.19;53.63;99899.72;6280921;20;2821300;-57
2022/08/30 09:59:25;;;;;;;;;13.50;13.50;;;;;27.83;52.28;99902.41;6282222;20;2807948;-59
2022/08/30 10:02:46;;;;;;;;;19.33;17.33;;;;;28.05;52.82;99894.94;6279498;20;3575374;-58
2022/08/30 10:05:51;;;;;;;;;20.00;20.00;;;;;27.86;52.62;99895.63;6284936;20;3576723;-50
2022/08/30 10:08:50;;;;;;;;;15.33;15.33;;;;;28.02;52.50;99884.28;6282229;20;3554448;-49
2022/08/30 10:12:03;;;;;;;;;31.33;26.00;;;;;27.96;50.64;99887.84;6282020;20;1906538;-50
2022/08/30 10:14:44;;;;;;;;;12.00;12.00;;;;;27.82;50.85;99889.66;6316422;20;2483578;-47
2022/08/30 10:17:43;;;;;;;;;13.00;13.00;;;;;27.99;50.52;99884.72;6300425;20;3516015;-50
2022/08/30 10:20:20;;;;;;;;;20.00;14.00;;;;;27.63;51.77;99887.59;6308997;20;2821107;-60
2022/08/30 10:23:52;;;;;;;;;13.00;12.00;;;;;28.26;48.34;99882.09;6278355;20;3513879;-54
2022/08/30 10:26:41;;;;;;;;;14.67;12.00;;;;;27.84;50.23;99870.16;6280228;20;3519011;-55
2022/08/30 10:29:29;;;;;;;;;12.00;11.33;;;;;28.45;48.78;99873.06;6287001;20;2782596;-57
2022/08/30 10:32:10;;;;;;;;;12.00;12.00;;;;;29.05;47.05;99874.09;6316338;20;3525243;-56
2022/08/30 10:35:02;;;;;;;;;14.00;13.67;;;;;28.72;46.93;99875.91;6287458;20;2487858;-56
2022/08/30 10:38:13;;;;;;;;;14.50;14.50;;;;;28.54;47.90;99877.38;6312558;20;2801360;-54
2022/08/30 10:43:56;;;;;;;;;13.00;10.67;;;;;28.64;44.54;99863.97;6282952;20;2485808;-53
2022/08/30 10:47:15;;;;;;;;;14.33;12.67;;;;;29.67;43.47;99872.00;6321135;20;3527323;-56
2022/08/30 10:50:18;;;;;;;;;8.67;7.67;;;;;29.61;42.87;99874.78;6320758;20;2733632;-52
2022/08/30 10:52:58;;;;;;;;;12.67;12.67;;;;;29.52;43.31;99876.91;6311240;20;3534666;-56
2022/08/30 10:55:49;;;;;;;;;12.67;11.00;;;;;28.31;45.40;99861.09;6285377;20;2483587;-54
2022/08/30 10:58:18;;;;;;;;;13.33;11.00;;;;;28.46;45.92;99858.19;6318012;20;3508555;-57
2022/08/30 11:01:34;;;;;;;;;9.67;9.67;;;;;28.31;45.47;99857.47;6298551;20;3492973;-58
2022/08/30 11:05:00;;;;;;;;;11.33;11.00;;;;;28.05;46.66;99859.03;6318051;20;3522198;-54
2022/08/30 11:08:50;;;;;;;;;11.00;11.00;;;;;28.57;47.52;99849.31;6315629;20;3511844;-57
2022/08/30 11:12:15;;;;;;;;;17.00;13.00;;;;;28.40;47.01;99850.69;6285656;20;2485703;-58
2022/08/30 11:14:46;;;;;;;;;12.33;12.33;;;;;28.17;47.08;99838.09;6316665;20;3525234;-58
2022/08/30 11:17:43;;;;;;;;;11.00;11.00;;;;;29.44;45.31;99835.63;6284201;20;3513897;-55
2022/08/30 11:20:48;;;;;;;;;11.00;11.00;;;;;29.19;44.79;99835.41;6314519;20;3513903;-50
2022/08/30 11:23:30;;;;;;;;;11.00;10.00;;;;;28.47;45.47;99829.50;6283479;20;3522183;-46
2022/08/30 11:26:12;;;;;;;;;15.00;12.50;;;;;28.60;46.04;99837.84;6314890;20;2785887;-50
2022/08/30 11:28:48;;;;;;;;;11.33;10.00;;;;;29.00;45.62;99815.78;6287975;20;2483570;-49
2022/08/30 11:31:22;;;;;;;;;13.67;11.00;;;;;29.48;44.88;99826.66;6317549;20;3517926;-48
2022/08/30 11:33:56;;;;;;;;;13.00;11.67;;;;;29.57;44.23;99820.91;6316524;20;3518018;-49
2022/08/30 11:36:28;;;;;;;;;6.00;6.00;;;;;29.81;43.81;99822.19;6289413;20;2745076;-49
2022/08/30 11:39:12;;;;;;;;;11.00;11.00;;;;;29.84;43.56;99819.84;6317154;20;3510661;-50
2022/08/30 11:41:47;;;;;;;;;12.67;11.00;;;;;29.47;44.36;99815.84;6315502;20;3511840;-55